Time;durP1;ratioP1;P1;durP2;ratioP2;P2;SDS_P1;SDS_P2;PMS_P1;PMS_P2;Temp;Humidity;BMP_temperature;BMP_pressure;BME280_temperature;BME280_humidity;BME280_pressure;Samples;Min_cycle;Max_cycle;Signal;HPM_P1;HPM_P2
2022/05/14 00:02:10;;;;;;;5.57;2.10;;;10.80;99.90;;;;;;4980658;28;20748;-84
2022/05/14 00:04:38;;;;;;;4.13;2.65;;;10.80;99.90;;;;;;4962290;28;20758;-84
2022/05/14 00:07:05;;;;;;;4.70;3.15;;;10.80;99.90;;;;;;4982708;28;20660;-84
2022/05/14 00:09:31;;;;;;;3.78;2.28;;;10.80;99.90;;;;;;4995254;28;20073;-84
2022/05/14 00:14:44;;;;;;;3.22;2.03;;;10.70;99.90;;;;;;4973812;28;20503;-84
2022/05/14 00:17:11;;;;;;;6.35;3.85;;;10.70;99.90;;;;;;4976793;28;20050;-84
2022/05/14 00:19:38;;;;;;;5.78;2.20;;;10.60;99.90;;;;;;4969546;28;20137;-84
2022/05/14 00:22:05;;;;;;;8.02;2.80;;;10.60;99.90;;;;;;4964257;28;20054;-85
2022/05/14 00:24:31;;;;;;;3.70;2.70;;;10.60;99.90;;;;;;4962651;28;20054;-84
2022/05/14 00:26:58;;;;;;;6.20;2.25;;;10.60;99.90;;;;;;4971417;28;20082;-84
2022/05/14 00:29:27;;;;;;;4.85;2.10;;;10.50;99.90;;;;;;4977804;28;20144;-84
2022/05/14 00:31:54;;;;;;;2.70;2.50;;;10.50;99.90;;;;;;4982412;28;20050;-84
2022/05/14 00:34:21;;;;;;;6.57;2.92;;;10.50;99.90;;;;;;4981753;28;20062;-84
2022/05/14 00:36:48;;;;;;;4.95;2.67;;;10.40;99.90;;;;;;4984358;28;20089;-84
2022/05/14 00:39:15;;;;;;;5.53;2.47;;;10.40;99.90;;;;;;4982857;28;20069;-84
2022/05/14 00:41:49;;;;;;;2.67;2.22;;;10.30;99.90;;;;;;4964427;28;20046;-84
2022/05/14 00:44:16;;;;;;;5.50;2.65;;;10.30;99.90;;;;;;4983445;28;20065;-84
2022/05/14 00:46:46;;;;;;;4.78;2.47;;;10.20;99.90;;;;;;4966112;28;20056;-85
2022/05/14 00:49:15;;;;;;;8.05;3.55;;;10.20;99.90;;;;;;4983217;28;21776;-86
2022/05/14 00:51:44;;;;;;;3.15;2.83;;;10.10;99.90;;;;;;4982390;28;24346;-85
2022/05/14 00:54:18;;;;;;;2.85;2.50;;;10.00;99.90;;;;;;4965399;28;20058;-85
2022/05/14 00:56:59;;;;;;;9.02;2.97;;;10.00;99.90;;;;;;4966405;28;20060;-85
2022/05/14 00:59:27;;;;;;;3.38;2.60;;;10.00;99.90;;;;;;4958778;28;20060;-86
2022/05/14 01:01:55;;;;;;;6.75;3.08;;;10.00;99.90;;;;;;4982765;28;20668;-86
2022/05/14 01:04:24;;;;;;;4.75;3.08;;;10.00;99.90;;;;;;4976159;28;20054;-86
2022/05/14 01:07:19;;;;;;;4.78;4.18;;;9.90;99.90;;;;;;4965088;28;20133;-86
2022/05/14 01:09:52;;;;;;;6.63;3.00;;;9.90;99.90;;;;;;4956151;28;20093;-87
2022/05/14 01:12:21;;;;;;;5.65;3.20;;;9.90;99.90;;;;;;4958072;28;1096238;-86
2022/05/14 01:14:49;;;;;;;5.03;3.85;;;9.80;99.90;;;;;;4986333;28;20103;-86
2022/05/14 01:17:16;;;;;;;5.95;3.53;;;9.80;99.90;;;;;;4986312;28;20042;-86
2022/05/14 01:19:43;;;;;;;5.68;3.22;;;9.80;99.90;;;;;;4984247;28;20390;-86
2022/05/14 01:22:17;;;;;;;11.32;4.82;;;9.80;99.90;;;;;;4981905;28;20061;-86
2022/05/14 01:27:52;;;;;;;7.68;3.45;;;9.80;99.90;;;;;;4990157;28;20406;-86
2022/05/14 01:30:22;;;;;;;5.75;3.58;;;9.80;99.90;;;;;;4991355;28;20054;-86
2022/05/14 01:33:04;;;;;;;7.72;3.28;;;9.80;99.90;;;;;;4986360;28;20060;-86
2022/05/14 01:35:39;;;;;;;4.03;3.65;;;9.80;99.90;;;;;;4983662;28;20038;-86
2022/05/14 01:38:07;;;;;;;5.80;3.08;;;9.70;99.90;;;;;;4985851;28;20053;-87
2022/05/14 01:40:35;;;;;;;6.95;3.22;;;9.80;99.90;;;;;;4986254;28;20074;-86
2022/05/14 01:43:03;;;;;;;7.70;5.28;;;9.80;99.90;;;;;;5004192;28;20565;-85
2022/05/14 01:45:32;;;;;;;4.78;2.83;;;9.80;99.90;;;;;;4992599;28;20050;-86
2022/05/14 01:47:59;;;;;;;6.90;3.28;;;9.80;99.90;;;;;;4969003;28;20057;-86
2022/05/14 01:50:27;;;;;;;6.47;2.92;;;9.80;99.90;;;;;;5001771;28;20054;-86
2022/05/14 01:52:53;;;;;;;5.25;3.03;;;9.80;99.90;;;;;;5003598;28;20479;-86
2022/05/14 01:55:21;;;;;;;5.65;2.60;;;9.80;99.90;;;;;;4984898;28;20061;-86
2022/05/14 01:57:49;;;;;;;2.50;2.30;;;9.80;99.90;;;;;;4982611;28;20038;-85
2022/05/14 02:00:18;;;;;;;3.67;2.33;;;9.80;99.90;;;;;;5001209;28;20133;-86
2022/05/14 02:02:50;;;;;;;3.83;1.98;;;9.90;99.90;;;;;;4986021;28;20042;-86
2022/05/14 02:05:18;;;;;;;5.03;2.45;;;9.90;99.90;;;;;;4984931;28;20054;-86
2022/05/14 02:07:46;;;;;;;5.53;2.53;;;9.90;99.90;;;;;;4984581;28;20124;-86
2022/05/14 02:10:14;;;;;;;3.30;2.47;;;9.90;99.90;;;;;;5001550;28;20077;-86
2022/05/14 02:12:41;;;;;;;4.22;2.25;;;9.90;99.90;;;;;;4963081;28;20172;-86
2022/05/14 02:15:09;;;;;;;5.55;2.78;;;10.00;99.90;;;;;;4998298;28;20223;-86
2022/05/14 02:17:37;;;;;;;6.93;2.20;;;10.00;99.90;;;;;;4996668;28;20439;-85
2022/05/14 02:20:04;;;;;;;7.00;3.00;;;10.00;99.90;;;;;;4996454;28;20042;-86
2022/05/14 02:22:31;;;;;;;4.00;2.35;;;10.00;99.90;;;;;;4997019;28;20046;-85
2022/05/14 02:24:59;;;;;;;6.20;2.45;;;10.00;99.90;;;;;;4998505;28;20050;-85
2022/05/14 02:27:26;;;;;;;3.45;2.10;;;10.00;99.90;;;;;;4991902;28;20054;-85
2022/05/14 02:29:56;;;;;;;7.38;2.22;;;10.00;99.90;;;;;;4994656;28;20045;-85
2022/05/14 02:32:28;;;;;;;2.53;2.20;;;10.00;99.90;;;;;;4997820;28;20149;-85
2022/05/14 02:34:57;;;;;;;7.38;3.70;;;10.00;99.90;;;;;;4998256;28;20049;-85
2022/05/14 02:37:26;;;;;;;6.68;3.20;;;9.90;99.90;;;;;;4998302;28;20077;-84
2022/05/14 02:39:53;;;;;;;4.07;2.08;;;9.90;99.90;;;;;;4984432;28;20140;-84
2022/05/14 02:42:21;;;;;;;4.63;2.45;;;9.90;99.90;;;;;;4979126;28;20480;-85
2022/05/14 02:44:48;;;;;;;7.47;3.15;;;9.90;99.90;;;;;;4976962;28;20048;-85
2022/05/14 02:47:17;;;;;;;9.07;3.10;;;9.80;99.90;;;;;;4984052;28;20526;-84
2022/05/14 02:49:44;;;;;;;4.53;2.83;;;9.70;99.90;;;;;;4982132;28;20105;-85
2022/05/14 02:52:12;;;;;;;5.78;2.60;;;9.70;99.90;;;;;;4983476;28;20073;-84
2022/05/14 02:54:40;;;;;;;5.40;2.65;;;9.60;99.90;;;;;;5001905;28;20045;-85
2022/05/14 02:57:07;;;;;;;4.88;2.78;;;9.60;99.90;;;;;;4985030;28;20371;-86
2022/05/14 02:59:34;;;;;;;2.58;2.38;;;9.50;99.90;;;;;;4998681;28;20053;-86
2022/05/14 03:02:03;;;;;;;5.68;3.17;;;9.40;99.90;;;;;;4984062;28;20054;-86
2022/05/14 03:04:36;;;;;;;5.60;3.03;;;9.30;99.90;;;;;;5000773;28;20511;-85
2022/05/14 03:07:06;;;;;;;6.22;3.38;;;9.30;99.90;;;;;;4983670;28;20153;-86
2022/05/14 03:09:35;;;;;;;6.40;2.92;;;9.30;99.90;;;;;;4982389;28;20046;-85
2022/05/14 03:12:03;;;;;;;4.07;3.05;;;9.30;99.90;;;;;;4968017;28;20058;-86
2022/05/14 03:14:30;;;;;;;7.25;3.03;;;9.20;99.90;;;;;;5000503;28;20053;-86
2022/05/14 03:16:57;;;;;;;4.68;2.88;;;9.20;99.90;;;;;;4999550;28;20046;-84
2022/05/14 03:19:25;;;;;;;6.63;4.30;;;9.10;99.90;;;;;;4981884;28;20057;-85
2022/05/14 03:21:52;;;;;;;5.43;3.17;;;9.10;99.90;;;;;;4983526;28;20554;-86
2022/05/14 03:24:20;;;;;;;4.32;2.88;;;9.00;99.90;;;;;;4966813;28;20045;-85
2022/05/14 03:26:47;;;;;;;7.50;2.92;;;9.00;99.90;;;;;;4983001;28;20052;-85
2022/05/14 03:29:14;;;;;;;14.20;5.05;;;8.90;99.90;;;;;;5000031;28;20063;-85
2022/05/14 03:31:42;;;;;;;5.68;3.70;;;8.80;99.90;;;;;;4971762;28;20043;-85
2022/05/14 03:34:11;;;;;;;7.82;3.40;;;8.80;99.90;;;;;;5001892;28;20053;-85
2022/05/14 03:36:40;;;;;;;7.18;2.90;;;8.80;99.90;;;;;;4983367;28;20061;-85
2022/05/14 03:39:09;;;;;;;9.00;3.53;;;8.80;99.90;;;;;;4983371;28;20542;-85
2022/05/14 03:41:36;;;;;;;8.90;4.72;;;8.70;99.90;;;;;;4981089;28;20128;-86
2022/05/14 03:44:03;;;;;;;9.52;4.70;;;8.70;99.90;;;;;;4966978;28;20065;-86
2022/05/14 03:46:30;;;;;;;11.32;4.07;;;8.70;99.90;;;;;;5000687;28;20050;-85
2022/05/14 03:48:57;;;;;;;7.63;4.15;;;8.80;99.90;;;;;;4983506;28;20065;-85
2022/05/14 03:51:25;;;;;;;7.95;4.72;;;8.80;99.90;;;;;;4974425;28;20041;-85
2022/05/14 03:53:52;;;;;;;9.10;3.85;;;8.80;99.90;;;;;;5001684;28;20800;-85
2022/05/14 03:56:19;;;;;;;6.63;3.63;;;8.80;99.90;;;;;;4981535;28;20050;-84
2022/05/14 03:58:46;;;;;;;11.00;4.70;;;8.90;99.90;;;;;;5001899;28;20077;-85
2022/05/14 04:01:14;;;;;;;10.93;3.83;;;8.80;99.90;;;;;;4980271;28;20136;-85
2022/05/14 04:03:41;;;;;;;6.40;3.55;;;8.90;99.90;;;;;;4981878;28;20674;-85
2022/05/14 04:06:08;;;;;;;5.20;4.60;;;9.00;99.90;;;;;;4974366;28;20058;-84
2022/05/14 04:08:36;;;;;;;11.63;4.75;;;9.00;99.90;;;;;;4983136;28;20050;-85
2022/05/14 04:11:03;;;;;;;13.15;4.47;;;9.10;99.90;;;;;;4982846;28;20125;-85
2022/05/14 04:13:31;;;;;;;9.90;3.50;;;9.10;99.90;;;;;;4982119;28;20061;-85
2022/05/14 04:15:59;;;;;;;12.38;4.57;;;9.20;99.90;;;;;;4981416;28;20050;-85
2022/05/14 04:18:26;;;;;;;8.88;4.75;;;9.20;99.90;;;;;;4982736;28;20193;-84
2022/05/14 04:20:58;;;;;;;11.50;4.45;;;9.20;99.90;;;;;;4980487;28;20046;-85
2022/05/14 04:23:28;;;;;;;6.68;3.97;;;9.30;99.90;;;;;;4988505;28;20137;-84
2022/05/14 04:25:57;;;;;;;9.15;4.07;;;9.40;99.90;;;;;;4982201;28;20045;-85
2022/05/14 04:28:25;;;;;;;8.55;3.75;;;9.40;99.90;;;;;;4979478;28;20061;-85
2022/05/14 04:30:53;;;;;;;15.02;5.00;;;9.40;99.90;;;;;;4999527;28;20061;-86
2022/05/14 04:33:22;;;;;;;16.85;4.57;;;9.40;99.90;;;;;;4972936;28;20046;-85
2022/05/14 04:35:50;;;;;;;9.70;4.22;;;9.50;99.90;;;;;;4975587;28;20054;-86
2022/05/14 04:38:17;;;;;;;8.75;4.18;;;9.50;99.90;;;;;;4998028;28;20054;-86
2022/05/14 04:40:44;;;;;;;13.13;5.22;;;9.50;99.90;;;;;;4999135;28;20046;-86
2022/05/14 04:43:12;;;;;;;11.50;5.45;;;9.50;99.90;;;;;;4967025;28;20072;-83
2022/05/14 04:45:41;;;;;;;7.82;4.30;;;9.50;99.90;;;;;;4983696;28;20157;-86
2022/05/14 04:48:10;;;;;;;5.40;4.13;;;9.50;99.90;;;;;;4998420;28;20065;-86
2022/05/14 04:50:39;;;;;;;8.60;4.33;;;9.50;99.90;;;;;;4984561;28;20050;-85
2022/05/14 04:53:06;;;;;;;7.78;4.00;;;9.50;99.90;;;;;;4981509;28;20073;-86
2022/05/14 04:55:34;;;;;;;10.60;4.03;;;9.50;99.90;;;;;;4995639;28;20510;-85
2022/05/14 04:58:03;;;;;;;12.52;4.85;;;9.40;99.90;;;;;;4983328;28;20130;-86
2022/05/14 05:00:30;;;;;;;11.35;7.03;;;9.40;99.90;;;;;;4991623;28;20074;-86
2022/05/14 05:05:55;;;;;;;12.68;5.20;;;9.40;99.90;;;;;;4997895;28;20116;-86
2022/05/14 05:08:24;;;;;;;13.50;5.13;;;9.50;99.90;;;;;;4982693;28;20160;-86
2022/05/14 05:10:51;;;;;;;15.07;5.50;;;9.50;99.90;;;;;;4978852;28;20049;-86
2022/05/14 05:13:21;;;;;;;7.47;5.28;;;9.50;99.90;;;;;;4992996;28;20075;-84
2022/05/14 05:15:48;;;;;;;18.40;7.63;;;9.50;99.90;;;;;;4980783;28;20069;-84
2022/05/14 05:18:17;;;;;;;11.68;5.60;;;9.50;99.90;;;;;;4999778;28;20537;-86
2022/05/14 05:20:45;;;;;;;12.02;5.72;;;9.60;99.90;;;;;;5001335;28;20082;-85
2022/05/14 05:23:18;;;;;;;16.70;7.60;;;9.60;99.90;;;;;;5003427;28;20050;-86
2022/05/14 05:25:46;;;;;;;13.43;6.25;;;9.60;99.90;;;;;;4999896;28;20799;-86
2022/05/14 05:28:13;;;;;;;17.17;7.07;;;9.60;99.90;;;;;;4986316;28;20113;-85
2022/05/14 05:30:41;;;;;;;19.38;7.20;;;9.70;99.90;;;;;;5003213;28;20498;-86
2022/05/14 05:33:13;;;;;;;14.55;6.88;;;9.70;99.90;;;;;;5002893;28;20178;-86
2022/05/14 05:35:40;;;;;;;15.70;7.60;;;9.70;99.90;;;;;;5002132;28;20049;-84
2022/05/14 05:38:07;;;;;;;20.08;7.25;;;9.80;99.90;;;;;;5001706;28;20156;-84
2022/05/14 05:40:35;;;;;;;12.43;6.35;;;9.80;99.90;;;;;;5004164;28;20066;-85
2022/05/14 05:43:05;;;;;;;20.05;6.38;;;9.70;99.90;;;;;;5003078;28;20108;-86
2022/05/14 05:45:33;;;;;;;15.85;7.15;;;9.70;99.90;;;;;;4995429;28;20062;-85
2022/05/14 05:48:00;;;;;;;20.65;7.50;;;9.70;99.90;;;;;;5001624;28;20049;-86
2022/05/14 05:50:27;;;;;;;17.65;7.00;;;9.70;99.90;;;;;;5003910;28;20526;-84
2022/05/14 05:52:54;;;;;;;13.60;6.80;;;9.70;99.90;;;;;;4985919;28;20058;-85
2022/05/14 05:58:08;;;;;;;20.95;7.95;;;9.70;99.90;;;;;;4983668;28;20613;-85
2022/05/14 06:00:36;;;;;;;19.25;8.88;;;9.80;99.90;;;;;;5003002;28;20045;-85
2022/05/14 06:03:04;;;;;;;26.92;6.70;;;9.70;99.90;;;;;;4975164;28;20161;-86
2022/05/14 06:05:37;;;;;;;11.25;6.68;;;9.80;99.90;;;;;;4999614;28;20056;-86
2022/05/14 06:08:12;;;;;;;14.52;7.38;;;9.80;99.90;;;;;;4966707;28;20098;-85
2022/05/14 06:10:41;;;;;;;12.43;7.07;;;9.80;99.90;;;;;;4985497;28;20050;-85
2022/05/14 06:13:11;;;;;;;17.83;7.20;;;9.80;99.90;;;;;;4982968;28;20051;-86
2022/05/14 06:15:39;;;;;;;14.48;6.57;;;9.80;99.90;;;;;;4981019;28;20049;-86
2022/05/14 06:18:07;;;;;;;11.50;6.90;;;9.80;99.90;;;;;;4981991;28;20046;-86
2022/05/14 06:20:37;;;;;;;28.55;18.23;;;9.90;99.90;;;;;;4980598;28;20042;-86
2022/05/14 06:23:04;;;;;;;;;;;9.90;99.90;;;;;;4983222;28;20411;-86
2022/05/14 06:25:31;;;;;;;18.02;6.45;;;9.90;99.90;;;;;;4983276;28;20361;-86
2022/05/14 06:27:58;;;;;;;23.63;7.88;;;9.90;99.90;;;;;;4965235;28;20518;-86
2022/05/14 06:30:26;;;;;;;14.77;9.65;;;9.90;99.90;;;;;;4982034;28;20137;-86
2022/05/14 06:32:53;;;;;;;17.50;9.23;;;9.80;99.90;;;;;;4980941;28;20046;-86
2022/05/14 06:35:20;;;;;;;16.33;7.57;;;9.70;99.90;;;;;;4975241;28;20616;-86
2022/05/14 06:37:47;;;;;;;18.02;7.38;;;9.70;99.90;;;;;;4963442;28;20053;-86
2022/05/14 06:40:14;;;;;;;17.13;8.27;;;9.70;99.90;;;;;;4958866;28;20046;-86
2022/05/14 06:42:41;;;;;;;16.48;7.40;;;9.70;99.90;;;;;;4981933;28;20074;-86
2022/05/14 06:45:09;;;;;;;19.75;7.72;;;9.80;99.90;;;;;;4964039;28;20085;-86
2022/05/14 06:47:37;;;;;;;18.08;7.70;;;9.90;99.90;;;;;;4962577;28;20057;-86
2022/05/14 06:50:05;;;;;;;19.58;7.30;;;9.80;99.90;;;;;;4981949;28;20046;-85
2022/05/14 06:52:32;;;;;;;14.68;6.80;;;9.90;99.90;;;;;;4982032;28;20116;-86
2022/05/14 06:55:00;;;;;;;20.58;7.63;;;9.90;99.90;;;;;;4981911;28;20085;-86
2022/05/14 06:57:30;;;;;;;20.20;7.50;;;9.90;99.90;;;;;;4980332;28;20058;-86
2022/05/14 06:59:58;;;;;;;26.63;8.52;;;9.90;99.90;;;;;;4982042;28;20192;-86
2022/05/14 07:02:27;;;;;;;15.73;8.48;;;9.90;99.90;;;;;;4981200;28;20065;-86
2022/05/14 07:07:41;;;;;;;16.15;5.88;;;9.90;99.90;;;;;;4962026;28;20050;-86
2022/05/14 07:10:08;;;;;;;10.90;7.07;;;10.00;99.90;;;;;;4964623;28;20109;-87
2022/05/14 07:12:36;;;;;;;12.68;5.72;;;10.00;99.90;;;;;;4997334;28;20057;-86
2022/05/14 07:15:04;;;;;;;23.13;9.00;;;10.00;99.90;;;;;;4982780;28;20045;-86
2022/05/14 07:17:32;;;;;;;18.65;7.35;;;10.00;99.90;;;;;;4998894;28;20058;-87
2022/05/14 07:19:59;;;;;;;23.40;6.70;;;10.10;99.90;;;;;;4984554;28;20054;-86
2022/05/14 07:22:25;;;;;;;21.00;7.00;;;10.20;99.90;;;;;;5000999;28;20550;-87
2022/05/14 07:24:52;;;;;;;25.58;7.53;;;10.20;99.90;;;;;;4983953;28;20125;-86
2022/05/14 07:27:19;;;;;;;22.13;8.13;;;10.20;99.90;;;;;;4995311;28;20054;-86
2022/05/14 07:29:46;;;;;;;14.90;7.07;;;10.30;99.90;;;;;;4998704;28;20411;-87
2022/05/14 07:32:16;;;;;;;16.60;6.32;;;10.20;99.90;;;;;;4983059;28;20112;-86
2022/05/14 07:34:43;;;;;;;13.90;5.78;;;10.20;99.90;;;;;;5001225;28;20129;-87
2022/05/14 07:37:24;;;;;;;13.27;6.50;;;10.20;99.90;;;;;;4999362;28;20072;-87
2022/05/14 07:40:01;;;;;;;16.55;6.30;;;10.20;99.90;;;;;;4981682;28;20423;-87
2022/05/14 07:42:38;;;;;;;15.52;6.90;;;10.20;99.90;;;;;;4998929;28;20109;-86
2022/05/14 07:45:08;;;;;;;15.95;7.28;;;10.20;99.90;;;;;;4988753;28;20088;-86
2022/05/14 07:47:36;;;;;;;10.90;6.82;;;10.20;99.90;;;;;;4973838;28;20787;-85
2022/05/14 07:50:05;;;;;;;11.02;6.10;;;10.10;99.90;;;;;;5000837;28;20901;-86
2022/05/14 07:52:36;;;;;;;8.70;5.43;;;10.10;99.90;;;;;;4998081;28;20577;-87
2022/05/14 07:55:03;;;;;;;12.02;7.15;;;10.10;99.90;;;;;;4980321;28;20081;-87
2022/05/14 07:57:30;;;;;;;21.73;5.75;;;10.10;99.90;;;;;;4981041;28;20084;-86
2022/05/14 07:59:57;;;;;;;19.17;7.40;;;10.00;99.90;;;;;;4975754;28;20132;-86
2022/05/14 08:02:31;;;;;;;11.20;6.53;;;10.00;99.90;;;;;;5001306;28;20122;-87
2022/05/14 08:05:01;;;;;;;9.65;5.28;;;10.00;99.90;;;;;;5001836;28;20129;-87
2022/05/14 08:07:30;;;;;;;15.20;7.05;;;10.00;99.90;;;;;;4996035;28;20053;-86
2022/05/14 08:10:01;;;;;;;13.65;6.38;;;9.90;99.90;;;;;;4966540;28;20045;-86
2022/05/14 08:12:43;;;;;;;21.95;7.75;;;10.00;99.90;;;;;;4999548;28;20100;-86
2022/05/14 08:15:12;;;;;;;15.45;7.13;;;9.90;99.90;;;;;;4982425;28;20057;-87
2022/05/14 08:17:40;;;;;;;19.27;6.77;;;10.00;99.90;;;;;;4998447;28;20079;-85
2022/05/14 08:20:08;;;;;;;11.85;7.53;;;10.00;99.90;;;;;;5000294;28;20050;-86
2022/05/14 08:25:22;;;;;;;22.13;7.68;;;10.00;99.90;;;;;;4995341;28;20046;-86
2022/05/14 08:27:49;;;;;;;19.02;7.40;;;10.00;99.90;;;;;;4989000;28;20132;-85
2022/05/14 08:30:19;;;;;;;15.85;7.03;;;10.10;99.90;;;;;;4999973;28;20656;-86
2022/05/14 08:32:46;;;;;;;17.77;6.38;;;10.10;99.90;;;;;;4965589;28;20057;-86
2022/05/14 08:35:15;;;;;;;21.33;7.20;;;10.20;99.90;;;;;;4972443;28;20051;-86
2022/05/14 08:37:42;;;;;;;12.05;5.70;;;10.30;99.90;;;;;;4996677;28;20054;-86
2022/05/14 08:40:18;;;;;;;15.75;7.10;;;10.20;99.90;;;;;;5001321;28;20667;-86
2022/05/14 08:42:53;;;;;;;12.73;6.50;;;10.20;99.90;;;;;;5002374;28;20155;-86
2022/05/14 08:45:25;;;;;;;11.85;5.97;;;10.20;99.90;;;;;;4990991;28;20072;-86
2022/05/14 08:48:04;;;;;;;12.05;5.47;;;10.20;99.90;;;;;;5000691;28;20069;-86
2022/05/14 08:50:35;;;;;;;16.90;5.53;;;10.10;99.90;;;;;;5006069;28;20152;-86
2022/05/14 08:53:06;;;;;;;17.58;6.28;;;10.20;99.90;;;;;;5001368;28;20163;-87
2022/05/14 08:56:11;;;;;;;18.65;5.60;;;10.20;99.90;;;;;;4995392;28;20581;-85
2022/05/14 08:59:15;;;;;;;16.98;5.80;;;10.20;99.90;;;;;;4938251;29;20100;-86
2022/05/14 09:01:44;;;;;;;14.05;5.68;;;10.30;99.90;;;;;;4979416;28;20046;-85
2022/05/14 09:04:17;;;;;;;12.48;5.13;;;10.40;99.90;;;;;;4979564;28;20054;-85
2022/05/14 09:06:45;;;;;;;17.08;5.00;;;10.40;99.90;;;;;;5004500;28;20134;-86
2022/05/14 09:09:13;;;;;;;10.68;5.13;;;10.40;99.90;;;;;;5001168;28;20042;-86
2022/05/14 09:11:56;;;;;;;9.63;4.00;;;10.50;99.90;;;;;;5001769;28;20042;-86
2022/05/14 09:14:33;;;;;;;7.65;3.78;;;10.70;99.90;;;;;;5002314;28;20113;-86
2022/05/14 09:17:07;;;;;;;12.10;3.83;;;10.80;99.90;;;;;;5002783;28;20049;-86
2022/05/14 09:19:40;;;;;;;8.15;4.50;;;11.00;99.90;;;;;;5002751;28;20056;-86
2022/05/14 09:22:09;;;;;;;14.38;3.20;;;11.10;99.90;;;;;;5003197;28;20625;-86
2022/05/14 09:24:43;;;;;;;8.63;3.63;;;11.20;99.90;;;;;;4983974;28;20687;-85
2022/05/14 09:27:19;;;;;;;11.68;4.25;;;11.30;99.90;;;;;;5003719;28;20149;-86
2022/05/14 09:29:47;;;;;;;8.50;2.97;;;11.40;99.90;;;;;;5001190;28;20491;-85
2022/05/14 09:32:17;;;;;;;14.57;3.50;;;11.40;99.90;;;;;;5003578;28;20049;-85
2022/05/14 09:34:44;;;;;;;7.10;3.00;;;11.40;99.90;;;;;;5003783;28;20108;-86
2022/05/14 09:37:31;;;;;;;12.23;2.97;;;11.40;99.90;;;;;;4992305;28;20049;-85
2022/05/14 09:40:00;;;;;;;10.02;3.42;;;11.40;99.90;;;;;;5003223;28;20454;-85
2022/05/14 09:42:45;;;;;;;7.85;4.18;;;11.40;99.90;;;;;;5003218;28;20050;-85
2022/05/14 09:45:24;;;;;;;8.63;3.03;;;11.50;99.90;;;;;;4985396;28;20045;-85
2022/05/14 09:47:51;;;;;;;9.45;3.15;;;11.50;99.90;;;;;;5001941;28;20042;-84
2022/05/14 09:50:30;;;;;;;7.43;2.70;;;11.50;99.90;;;;;;4997966;28;20073;-85
2022/05/14 09:53:01;;;;;;;12.43;3.40;;;11.60;99.90;;;;;;5000080;28;20065;-85
2022/05/14 09:55:53;;;;;;;5.93;4.13;;;11.50;99.90;;;;;;5001785;28;20058;-85
2022/05/14 09:58:36;;;;;;;11.55;4.13;;;11.40;99.90;;;;;;5001748;28;20469;-85
2022/05/14 10:01:17;;;;;;;9.43;4.72;;;11.40;99.90;;;;;;4987291;28;20073;-86
2022/05/14 10:03:58;;;;;;;7.70;4.35;;;11.40;99.90;;;;;;4998086;28;20366;-85
2022/05/14 10:06:40;;;;;;;10.02;2.75;;;11.50;99.90;;;;;;4975572;28;20097;-85
2022/05/14 10:09:18;;;;;;;10.20;3.30;;;11.40;99.90;;;;;;5002186;28;20565;-85
2022/05/14 10:11:53;;;;;;;6.40;3.40;;;11.50;99.90;;;;;;4983510;28;20054;-85
2022/05/14 10:14:53;;;;;;;7.78;3.42;;;11.70;99.90;;;;;;4996823;28;20058;-85
2022/05/14 10:17:36;;;;;;;;;;;11.80;99.90;;;;;;5001144;28;20042;-85
2022/05/14 10:20:21;;;;;;;6.75;3.50;;;11.80;99.90;;;;;;4996561;28;19921;-85
2022/05/14 10:26:45;;;;;;;10.95;3.97;;;11.60;99.90;;;;;;5000334;28;20080;-85
2022/05/14 10:29:25;;;;;;;8.45;5.22;;;11.50;99.90;;;;;;4923914;28;20167;-85
2022/05/14 10:32:08;;;;;;;8.07;3.20;;;11.60;99.90;;;;;;5003243;28;20113;-85
2022/05/14 10:34:40;;;;;;;11.27;3.25;;;11.80;99.90;;;;;;5000766;28;20053;-85
2022/05/14 10:37:16;;;;;;;5.35;2.53;;;12.00;99.90;;;;;;4985059;28;20052;-85
2022/05/14 10:40:07;;;;;;;7.20;2.95;;;12.00;99.90;;;;;;5001179;28;20132;-85
2022/05/14 10:42:52;;;;;;;13.90;4.97;;;12.10;99.90;;;;;;4997881;28;20410;-85
2022/05/14 10:45:33;;;;;;;14.93;4.88;;;12.00;99.90;;;;;;5000187;28;20141;-85
2022/05/14 10:48:06;;;;;;;6.53;2.88;;;12.20;99.90;;;;;;4995950;28;20494;-85
2022/05/14 10:50:33;;;;;;;6.22;3.50;;;12.30;99.90;;;;;;5001939;28;20058;-85
2022/05/14 10:53:06;;;;;;;9.32;4.25;;;12.30;99.90;;;;;;5001986;28;20069;-84
2022/05/14 10:55:46;;;;;;;4.28;2.83;;;12.20;99.90;;;;;;4977731;28;20054;-87
2022/05/14 10:58:36;;;;;;;5.85;2.80;;;12.10;99.90;;;;;;5000915;28;20050;-85
2022/05/14 11:01:44;;;;;;;10.00;3.45;;;12.20;99.90;;;;;;4981492;28;20058;-85
2022/05/14 11:04:22;;;;;;;6.75;3.42;;;12.20;99.90;;;;;;4994580;28;20657;-85
2022/05/14 11:07:05;;;;;;;5.68;2.90;;;12.30;99.90;;;;;;5001077;28;20050;-85
2022/05/14 11:09:38;;;;;;;15.88;4.13;;;12.10;99.90;;;;;;4995638;28;20100;-85
2022/05/14 11:12:10;;;;;;;8.10;3.15;;;12.10;99.90;;;;;;4983446;28;20399;-85
2022/05/14 11:14:51;;;;;;;9.45;2.70;;;12.00;99.90;;;;;;4981723;28;20061;-85
2022/05/14 11:17:26;;;;;;;6.28;2.70;;;12.20;99.90;;;;;;5000847;28;20493;-84
2022/05/14 11:20:06;;;;;;;3.95;1.90;;;12.30;99.90;;;;;;4975063;28;20049;-85
2022/05/14 11:22:32;;;;;;;8.63;2.65;;;12.20;99.90;;;;;;4998790;28;20455;-84
2022/05/14 11:25:13;;;;;;;6.72;2.72;;;12.20;99.90;;;;;;5001089;28;20145;-85
2022/05/14 11:27:41;;;;;;;;;;;12.30;99.90;;;;;;5000238;28;20056;-85
2022/05/14 11:30:11;;;;;;;6.97;3.25;;;12.40;99.90;;;;;;4999781;28;20012;-85
2022/05/14 11:32:50;;;;;;;11.88;3.17;;;12.40;99.90;;;;;;5001324;28;20084;-85
2022/05/14 11:35:18;;;;;;;6.85;3.30;;;12.50;99.90;;;;;;5001339;28;20144;-85
2022/05/14 11:37:51;;;;;;;6.43;3.45;;;12.50;99.90;;;;;;5001431;28;20160;-85
2022/05/14 11:40:21;;;;;;;8.13;3.35;;;12.50;99.90;;;;;;4993858;28;20054;-85
2022/05/14 11:42:51;;;;;;;7.13;2.40;;;12.60;99.90;;;;;;4977804;28;20065;-85
2022/05/14 11:45:24;;;;;;;13.50;3.50;;;12.50;99.90;;;;;;4996638;28;20937;-85
2022/05/14 11:47:53;;;;;;;7.78;4.22;;;12.60;99.90;;;;;;4999938;28;20070;-85
2022/05/14 11:50:27;;;;;;;9.52;2.72;;;12.80;99.90;;;;;;4997396;28;20075;-85
2022/05/14 11:53:11;;;;;;;8.73;2.85;;;12.80;99.90;;;;;;5000431;28;20073;-85
2022/05/14 11:55:50;;;;;;;4.22;2.35;;;12.80;99.90;;;;;;4981536;28;20151;-85
2022/05/14 11:58:39;;;;;;;8.40;3.30;;;12.90;99.90;;;;;;4995183;28;20050;-86
2022/05/14 12:01:30;;;;;;;8.18;3.58;;;12.80;99.90;;;;;;4999536;28;20564;-85
2022/05/14 12:04:01;;;;;;;6.97;2.42;;;12.80;99.90;;;;;;4998692;28;20060;-85
2022/05/14 12:06:48;;;;;;;9.82;3.58;;;13.00;99.90;;;;;;5000516;28;20065;-85
2022/05/14 12:09:22;;;;;;;10.02;3.13;;;13.00;99.90;;;;;;4998446;28;20113;-85
2022/05/14 12:11:59;;;;;;;8.77;3.63;;;13.00;99.90;;;;;;4992197;28;20050;-85
2022/05/14 12:14:35;;;;;;;5.80;2.35;;;13.00;99.90;;;;;;4996919;28;20054;-85
2022/05/14 12:17:06;;;;;;;8.68;2.30;;;13.00;99.90;;;;;;5000215;28;20046;-85
2022/05/14 12:19:41;;;;;;;6.05;2.47;;;13.10;99.90;;;;;;4984669;28;20072;-85
2022/05/14 12:22:32;;;;;;;7.47;3.25;;;13.00;99.90;;;;;;4982366;28;20899;-85
2022/05/14 12:25:08;;;;;;;9.70;3.78;;;12.90;99.90;;;;;;4998886;28;20045;-85
2022/05/14 12:27:46;;;;;;;6.72;2.63;;;12.90;99.90;;;;;;4997440;28;20077;-85
2022/05/14 12:30:13;;;;;;;8.18;2.55;;;12.90;99.90;;;;;;5001891;28;20053;-85
2022/05/14 12:35:34;;;;;;;6.43;3.83;;;12.80;99.90;;;;;;4997421;28;20112;-86
2022/05/14 12:38:05;;;;;;;8.57;2.25;;;12.90;99.90;;;;;;4986439;28;20283;-85
2022/05/14 12:40:36;;;;;;;8.93;5.78;;;12.90;99.90;;;;;;4991765;28;20148;-85
2022/05/14 12:43:07;;;;;;;14.88;7.30;;;13.00;99.90;;;;;;5004033;28;20116;-85
2022/05/14 12:45:38;;;;;;;13.32;7.82;;;13.10;99.90;;;;;;5003699;28;20061;-85
2022/05/14 12:48:07;;;;;;;16.70;8.82;;;13.10;99.90;;;;;;5002702;28;20053;-85
2022/05/14 12:50:40;;;;;;;9.63;4.07;;;13.20;99.90;;;;;;5004724;28;20213;-85
2022/05/14 12:53:12;;;;;;;11.10;4.20;;;13.10;99.90;;;;;;5001148;28;20453;-85
2022/05/14 12:55:43;;;;;;;8.63;2.40;;;13.20;99.90;;;;;;5000632;28;20061;-85
2022/05/14 12:58:10;;;;;;;10.95;3.42;;;13.10;99.90;;;;;;4986550;28;20061;-85
2022/05/14 13:00:39;;;;;;;4.40;2.63;;;13.10;99.90;;;;;;4979776;28;20086;-85
2022/05/14 13:03:25;;;;;;;9.65;4.43;;;13.00;99.90;;;;;;4983809;28;20057;-84
2022/05/14 13:06:00;;;;;;;7.60;2.65;;;13.00;99.90;;;;;;5001743;28;20069;-85
2022/05/14 13:08:28;;;;;;;7.47;2.38;;;13.00;99.90;;;;;;5003090;28;20114;-85
2022/05/14 13:11:01;;;;;;;4.72;3.42;;;13.10;99.90;;;;;;5004529;28;20467;-85
2022/05/14 13:13:35;;;;;;;4.18;1.55;;;13.20;99.90;;;;;;5000016;28;20053;-85
2022/05/14 13:16:17;;;;;;;8.10;3.22;;;13.30;99.90;;;;;;5005113;28;20065;-85
2022/05/14 13:18:49;;;;;;;13.70;6.45;;;13.30;99.90;;;;;;4986015;28;20045;-85
2022/05/14 13:21:23;;;;;;;6.20;4.03;;;13.30;99.90;;;;;;5002932;28;20062;-85
2022/05/14 13:23:54;;;;;;;6.82;2.50;;;13.50;99.90;;;;;;4969732;28;20045;-84
2022/05/14 13:26:33;;;;;;;5.05;3.38;;;13.60;99.90;;;;;;4999723;28;20049;-85
2022/05/14 13:29:27;;;;;;;5.72;3.20;;;13.70;99.90;;;;;;5000754;28;20108;-85
2022/05/14 13:32:11;;;;;;;4.95;2.50;;;13.90;99.90;;;;;;4981322;28;20045;-85
2022/05/14 13:37:34;;;;;;;4.88;2.63;;;13.90;99.90;;;;;;4995079;28;20050;-85